Time;durP1;ratioP1;P1;durP2;ratioP2;P2;SDS_P1;SDS_P2;PMS_P1;PMS_P2;Temp;Humidity;BMP_temperature;BMP_pressure;BME280_temperature;BME280_humidity;BME280_pressure;Samples;Min_cycle;Max_cycle;Signal;HPM_P1;HPM_P2
2023/03/01 00:01:04;;;;;;;20.13;9.43;;;;;;;-1.86;81.93;103253.16;5074877;28;20139;-76
2023/03/01 00:03:33;;;;;;;15.18;9.13;;;;;;;-1.86;82.34;103247.16;5074303;28;20048;-76
2023/03/01 00:06:00;;;;;;;14.30;9.02;;;;;;;-1.87;82.38;103251.59;5074933;28;20094;-76
2023/03/01 00:08:27;;;;;;;15.82;8.77;;;;;;;-1.90;82.50;103248.81;5074488;28;20080;-77
2023/03/01 00:11:27;;;;;;;14.02;8.82;;;;;;;-1.91;82.25;103244.66;5075006;28;20049;-76
2023/03/01 00:13:58;;;;;;;14.95;8.40;;;;;;;-1.93;82.17;103241.56;5074497;28;20536;-76
2023/03/01 00:16:28;;;;;;;11.55;8.52;;;;;;;-1.94;82.71;103246.00;5074328;28;20052;-76
2023/03/01 00:18:56;;;;;;;12.75;8.50;;;;;;;-1.98;82.58;103249.47;5074998;28;20045;-76
2023/03/01 00:21:23;;;;;;;15.82;8.43;;;;;;;-2.09;82.53;103251.56;5074495;28;20049;-76
2023/03/01 00:23:50;;;;;;;14.75;8.60;;;;;;;-2.17;82.58;103242.56;5074466;28;20052;-76
2023/03/01 00:26:19;;;;;;;15.55;8.95;;;;;;;-2.21;82.87;103240.81;5074023;28;20044;-76
2023/03/01 00:28:46;;;;;;;14.50;8.93;;;;;;;-2.22;83.13;103241.88;5073844;28;20050;-76
2023/03/01 00:31:15;;;;;;;14.35;8.65;;;;;;;-2.19;83.55;103238.69;5073434;28;20041;-75
2023/03/01 00:33:43;;;;;;;13.55;8.70;;;;;;;-2.19;83.16;103238.69;5072941;28;20052;-76
2023/03/01 00:36:13;;;;;;;12.60;8.25;;;;;;;-2.19;84.00;103234.25;5074664;28;20071;-76
2023/03/01 00:38:44;;;;;;;17.17;9.13;;;;;;;-2.22;83.89;103229.59;5072903;28;20407;-75
2023/03/01 00:41:16;;;;;;;12.52;8.10;;;;;;;-2.25;84.01;103232.03;5073943;28;20502;-76
2023/03/01 00:43:44;;;;;;;12.38;8.30;;;;;;;-2.25;84.61;103230.19;5073912;28;20115;-75
2023/03/01 00:46:13;;;;;;;15.60;8.18;;;;;;;-2.26;84.35;103235.69;5074263;28;20072;-76
2023/03/01 00:48:40;;;;;;;11.23;8.07;;;;;;;-2.29;84.45;103233.66;5072908;28;20057;-75
2023/03/01 00:51:09;;;;;;;10.90;7.88;;;;;;;-2.30;84.88;103237.34;5072690;28;20053;-75
2023/03/01 00:53:36;;;;;;;11.73;7.60;;;;;;;-2.30;85.07;103237.34;5071299;28;20049;-76
2023/03/01 00:56:05;;;;;;;13.80;8.45;;;;;;;-2.31;84.96;103231.34;5073965;28;20041;-75
2023/03/01 00:58:31;;;;;;;12.90;8.30;;;;;;;-2.32;84.91;103226.41;5072875;28;20049;-75
2023/03/01 01:00:59;;;;;;;13.38;7.95;;;;;;;-2.35;85.21;103228.53;5074105;28;20048;-75
2023/03/01 01:03:26;;;;;;;14.20;8.52;;;;;;;-2.35;85.23;103225.16;5073546;28;20056;-75
2023/03/01 01:05:53;;;;;;;13.48;8.55;;;;;;;-2.36;85.52;103229.59;5074248;28;20072;-75
2023/03/01 01:08:20;;;;;;;14.52;8.40;;;;;;;-2.39;85.44;103216.38;5071740;28;20398;-76
2023/03/01 01:10:47;;;;;;;12.45;8.43;;;;;;;-2.42;85.38;103215.13;5071956;28;20041;-75
2023/03/01 01:13:13;;;;;;;16.05;7.95;;;;;;;-2.43;85.67;103215.44;5073481;28;20056;-76
2023/03/01 01:15:40;;;;;;;12.90;8.55;;;;;;;-2.45;85.99;103210.50;5073697;28;20048;-75
2023/03/01 01:18:07;;;;;;;15.90;8.70;;;;;;;-2.47;86.21;103209.25;5073609;28;20049;-76
2023/03/01 01:20:35;;;;;;;17.33;8.25;;;;;;;-2.52;86.21;103201.50;5073457;28;20591;-75
2023/03/01 01:23:01;;;;;;;13.98;8.90;;;;;;;-2.56;86.22;103200.53;5073497;28;20595;-75
2023/03/01 01:25:28;;;;;;;11.90;8.25;;;;;;;-2.62;86.06;103206.91;5071199;28;20049;-75
2023/03/01 01:27:54;;;;;;;17.55;9.02;;;;;;;-2.70;85.62;103200.53;5072025;28;20049;-75
2023/03/01 01:30:21;;;;;;;12.55;7.88;;;;;;;-2.73;85.95;103193.28;5073105;28;20049;-75
2023/03/01 01:32:47;;;;;;;14.13;8.93;;;;;;;-2.77;85.71;103187.09;5072041;28;20053;-75
2023/03/01 01:35:14;;;;;;;12.90;8.00;;;;;;;-2.80;85.99;103174.66;5072674;28;20056;-75
2023/03/01 01:37:40;;;;;;;12.43;8.13;;;;;;;-2.78;85.93;103178.50;5073645;28;20049;-75
2023/03/01 01:40:10;;;;;;;17.40;8.88;;;;;;;-2.77;86.15;103181.88;5073116;28;20068;-75
2023/03/01 01:42:37;;;;;;;14.82;8.85;;;;;;;-2.83;85.96;103188.28;5072026;28;20107;-75
2023/03/01 01:45:33;;;;;;;14.30;8.88;;;;;;;-2.90;85.91;103187.88;5073675;28;20048;-75
2023/03/01 01:48:12;;;;;;;13.32;8.35;;;;;;;-2.91;85.94;103181.09;5073515;28;20079;-74
2023/03/01 01:50:40;;;;;;;11.88;7.85;;;;;;;-2.91;86.43;103186.31;5073661;28;20041;-75
2023/03/01 01:53:16;;;;;;;14.27;9.23;;;;;;;-2.93;86.57;103186.59;5073435;28;20343;-75
2023/03/01 01:55:47;;;;;;;10.55;7.18;;;;;;;-2.93;86.25;103178.00;5071401;28;20581;-75
2023/03/01 01:58:17;;;;;;;8.87;7.37;;;;;;;-2.98;86.51;103175.50;5071245;28;20055;-76
2023/03/01 02:00:44;;;;;;;13.00;8.00;;;;;;;-2.98;87.03;103180.72;5071675;28;20825;-75
2023/03/01 02:03:18;;;;;;;12.23;8.43;;;;;;;-3.03;87.01;103173.75;5072975;28;20502;-75
2023/03/01 02:06:05;;;;;;;10.32;7.05;;;;;;;-3.08;86.80;103164.19;5072898;28;20048;-75
2023/03/01 02:08:35;;;;;;;11.77;7.55;;;;;;;-3.13;87.19;103166.09;5072281;28;20045;-75
2023/03/01 02:11:04;;;;;;;14.00;8.02;;;;;;;-3.11;87.50;103169.19;5070824;28;20060;-75
2023/03/01 02:13:32;;;;;;;13.50;8.35;;;;;;;-3.04;87.92;103172.19;5070813;28;20455;-75
2023/03/01 02:16:00;;;;;;;11.13;8.32;;;;;;;-3.07;88.09;103173.53;5072586;28;20053;-75
2023/03/01 02:18:26;;;;;;;17.58;8.48;;;;;;;-3.04;88.28;103167.75;5070702;28;20502;-75
2023/03/01 02:20:56;;;;;;;12.50;7.75;;;;;;;-3.07;88.10;103160.50;5071766;28;20057;-75
2023/03/01 02:23:22;;;;;;;12.50;8.00;;;;;;;-3.09;88.29;103167.84;5069804;28;20102;-74
2023/03/01 02:25:58;;;;;;;12.10;7.97;;;;;;;-3.08;88.77;103168.63;5075180;28;20048;-74
2023/03/01 02:28:35;;;;;;;14.52;8.95;;;;;;;-3.09;89.02;103170.44;5091634;28;20045;-75
2023/03/01 02:33:51;;;;;;;17.58;8.50;;;;;;;-3.10;89.24;103161.09;5092348;28;20078;-74
2023/03/01 02:36:21;;;;;;;12.20;8.07;;;;;;;-3.18;88.86;103151.31;5091342;28;20111;-74
2023/03/01 02:38:51;;;;;;;11.43;8.43;;;;;;;-3.20;89.17;103152.69;5090749;28;20462;-74
2023/03/01 02:41:19;;;;;;;11.95;8.43;;;;;;;-3.24;88.88;103147.28;5090938;28;20040;-75
2023/03/01 02:43:46;;;;;;;13.25;8.50;;;;;;;-3.25;89.76;103145.72;5091173;28;20591;-75
2023/03/01 02:46:22;;;;;;;13.40;9.05;;;;;;;-3.25;89.36;103143.13;5092147;28;20049;-74
2023/03/01 02:48:54;;;;;;;12.20;7.82;;;;;;;-3.32;89.46;103144.56;5092722;28;20040;-74
2023/03/01 02:51:45;;;;;;;14.80;7.93;;;;;;;-3.28;89.95;103141.09;5092421;28;20075;-75
2023/03/01 02:54:33;;;;;;;12.02;8.32;;;;;;;-3.25;90.25;103139.75;5089959;28;20140;-74
2023/03/01 02:57:02;;;;;;;14.93;8.23;;;;;;;-3.28;89.94;103140.31;5091030;28;20453;-75
2023/03/01 02:59:40;;;;;;;12.50;7.90;;;;;;;-3.31;90.06;103135.69;5090279;28;20057;-74
2023/03/01 03:02:35;;;;;;;11.50;8.00;;;;;;;-3.31;90.28;103136.44;5091140;28;20045;-74
2023/03/01 03:05:20;;;;;;;15.07;8.50;;;;;;;-3.30;90.23;103132.78;5090311;28;20048;-75
2023/03/01 03:07:50;;;;;;;11.25;8.18;;;;;;;-3.32;90.32;103134.13;5090362;28;20493;-75
2023/03/01 03:10:24;;;;;;;13.80;8.18;;;;;;;-3.34;90.44;103129.22;5090447;28;20055;-74
2023/03/01 03:12:53;;;;;;;13.18;8.50;;;;;;;-3.34;90.38;103126.59;5090671;28;20048;-74
2023/03/01 03:15:22;;;;;;;15.40;8.18;;;;;;;-3.32;90.15;103128.91;5089938;28;20466;-74
2023/03/01 03:17:50;;;;;;;13.07;7.88;;;;;;;-3.35;90.32;103130.25;5093230;28;20497;-74
2023/03/01 03:20:19;;;;;;;13.63;7.72;;;;;;;-3.36;90.59;103132.09;5095345;28;20056;-75
2023/03/01 03:22:48;;;;;;;15.80;9.15;;;;;;;-3.36;90.64;103124.28;5095196;28;20543;-75
2023/03/01 03:25:15;;;;;;;14.63;8.57;;;;;;;-3.38;90.65;103123.78;5095272;27;20049;-75
2023/03/01 03:27:46;;;;;;;14.23;8.27;;;;;;;-3.41;90.88;103113.16;5095666;28;20045;-74
2023/03/01 03:30:16;;;;;;;14.48;8.93;;;;;;;-3.41;90.92;103115.78;5095372;28;20048;-75
2023/03/01 03:32:52;;;;;;;11.75;8.68;;;;;;;-3.40;90.99;103117.31;5095601;28;20052;-75
2023/03/01 03:35:25;;;;;;;13.15;8.77;;;;;;;-3.43;90.63;103125.72;5095467;28;20037;-74
2023/03/01 03:38:01;;;;;;;13.45;8.00;;;;;;;-3.47;90.39;103124.72;5095351;28;20044;-75
2023/03/01 03:40:49;;;;;;;10.65;7.95;;;;;;;-3.50;90.28;103125.28;5095243;28;20079;-75
2023/03/01 03:43:19;;;;;;;13.65;8.38;;;;;;;-3.53;90.67;103131.06;5095016;28;20420;-75
2023/03/01 03:45:47;;;;;;;13.27;7.55;;;;;;;-3.55;90.78;103126.16;5095491;28;20048;-75
2023/03/01 03:48:14;;;;;;;12.73;7.60;;;;;;;-3.55;90.46;103130.59;5094947;28;20563;-75
2023/03/01 03:50:41;;;;;;;10.48;7.35;;;;;;;-3.63;90.59;103113.81;5094963;28;20524;-75
2023/03/01 03:53:10;;;;;;;10.52;6.97;;;;;;;-3.61;90.77;103114.28;5095635;28;20071;-75
2023/03/01 03:55:38;;;;;;;9.60;7.10;;;;;;;-3.61;90.77;103111.69;5095302;28;20071;-75
2023/03/01 03:58:07;;;;;;;12.75;7.70;;;;;;;-3.63;90.75;103106.00;5095164;28;20123;-75
2023/03/01 04:00:36;;;;;;;12.10;7.25;;;;;;;-3.65;90.67;103096.91;5094629;28;20125;-75
2023/03/01 04:03:03;;;;;;;10.07;7.43;;;;;;;-3.71;90.18;103106.63;5095179;28;20048;-75
2023/03/01 04:05:30;;;;;;;12.43;7.70;;;;;;;-3.73;90.18;103113.94;5094392;28;20045;-75
2023/03/01 04:08:03;;;;;;;13.70;7.88;;;;;;;-3.76;90.46;103123.09;5095215;28;20481;-75
2023/03/01 04:10:34;;;;;;;10.57;7.50;;;;;;;-3.78;90.50;103112.19;5094700;28;20055;-75
2023/03/01 04:13:00;;;;;;;13.27;7.25;;;;;;;-3.76;90.55;103114.53;5095328;28;20048;-75
2023/03/01 04:15:27;;;;;;;9.57;6.85;;;;;;;-3.84;90.18;103113.31;5094614;28;20112;-75
2023/03/01 04:17:54;;;;;;;10.38;6.70;;;;;;;-3.86;90.47;103117.25;5093473;28;20514;-75
2023/03/01 04:20:26;;;;;;;11.45;7.78;;;;;;;-3.92;90.03;103110.59;5093779;28;20052;-75
2023/03/01 04:22:59;;;;;;;;;;;;;;;-3.91;89.98;103112.13;5095679;28;20080;-75
2023/03/01 04:25:26;;;;;;;14.35;7.35;;;;;;;-3.90;90.23;103111.06;5093219;28;19970;-75
2023/03/01 04:27:53;;;;;;;10.43;7.20;;;;;;;-4.03;89.80;103117.78;5094898;28;20041;-75
2023/03/01 04:30:19;;;;;;;15.25;7.85;;;;;;;-4.07;89.94;103112.38;5093828;28;20056;-75
2023/03/01 04:32:46;;;;;;;12.70;7.63;;;;;;;-4.10;89.95;103114.75;5093023;28;20059;-75
2023/03/01 04:35:12;;;;;;;11.45;7.57;;;;;;;-4.11;89.96;103118.41;5092271;28;20106;-75
2023/03/01 04:37:39;;;;;;;10.07;7.40;;;;;;;-4.11;89.94;103115.81;5094958;28;20103;-75
2023/03/01 04:40:16;;;;;;;9.77;7.13;;;;;;;-4.11;89.85;103113.22;5094744;28;20048;-75
2023/03/01 04:42:43;;;;;;;12.32;7.72;;;;;;;-4.13;89.82;103115.31;5094797;28;20056;-75
2023/03/01 04:45:15;;;;;;;13.45;7.50;;;;;;;-4.16;89.47;103108.84;5094914;28;20048;-75
2023/03/01 04:47:47;;;;;;;11.15;7.50;;;;;;;-4.14;89.80;103104.13;5094619;28;20052;-75
2023/03/01 04:50:17;;;;;;;10.32;7.18;;;;;;;-4.16;89.73;103108.06;5093996;28;20533;-75
2023/03/01 04:52:44;;;;;;;11.32;7.38;;;;;;;-4.17;89.71;103094.28;5095156;28;20045;-75
2023/03/01 04:55:11;;;;;;;10.18;7.53;;;;;;;-4.20;89.82;103092.25;5093132;28;20045;-75
2023/03/01 04:57:38;;;;;;;12.38;7.60;;;;;;;-4.20;89.96;103094.09;5094440;28;20044;-75
2023/03/01 05:00:19;;;;;;;13.05;8.02;;;;;;;-4.20;90.07;103086.28;5093501;28;20102;-75
2023/03/01 05:02:57;;;;;;;10.60;7.53;;;;;;;-4.21;90.42;103085.50;5092881;28;20053;-76
2023/03/01 05:05:33;;;;;;;11.55;7.53;;;;;;;-4.24;90.14;103080.09;5094594;28;20119;-75
2023/03/01 05:08:04;;;;;;;12.52;7.80;;;;;;;-4.28;90.43;103066.09;5094902;28;20055;-74
2023/03/01 05:10:32;;;;;;;9.25;7.43;;;;;;;-4.33;90.25;103066.16;5094076;28;20056;-75
2023/03/01 05:12:59;;;;;;;12.70;7.72;;;;;;;-4.32;90.33;103065.13;5094518;28;20036;-75
2023/03/01 05:15:27;;;;;;;10.07;7.28;;;;;;;-4.29;90.31;103072.34;5093307;28;20514;-75
2023/03/01 05:17:56;;;;;;;12.25;7.55;;;;;;;-4.39;90.14;103068.84;5093496;28;20048;-75
2023/03/01 05:20:29;;;;;;;12.98;7.60;;;;;;;-4.42;90.08;103066.03;5093297;28;20044;-75
2023/03/01 05:22:59;;;;;;;11.65;7.72;;;;;;;-4.44;90.22;103061.13;5093991;28;20454;-75
2023/03/01 05:25:26;;;;;;;12.10;8.10;;;;;;;-4.45;90.05;103054.38;5093139;28;20090;-75
2023/03/01 05:27:53;;;;;;;11.35;7.43;;;;;;;-4.43;90.36;103047.06;5093760;28;20041;-75
2023/03/01 05:30:21;;;;;;;14.27;7.72;;;;;;;-4.42;90.18;103046.03;5093254;28;20122;-75
2023/03/01 05:32:55;;;;;;;11.50;7.10;;;;;;;-4.45;90.08;103041.38;5093206;28;20063;-75
2023/03/01 05:35:22;;;;;;;11.45;7.32;;;;;;;-4.47;89.92;103048.69;5093192;28;20045;-76
2023/03/01 05:37:50;;;;;;;12.77;7.93;;;;;;;-4.53;89.94;103039.41;5093944;28;20067;-75
2023/03/01 05:40:19;;;;;;;13.77;8.13;;;;;;;-4.55;90.18;103031.09;5091054;28;20055;-76
2023/03/01 05:42:52;;;;;;;13.68;8.10;;;;;;;-4.54;90.20;103031.88;5093645;28;20052;-75
2023/03/01 05:45:18;;;;;;;13.80;8.43;;;;;;;-4.54;90.20;103027.44;5093153;28;20517;-75
2023/03/01 05:47:46;;;;;;;12.23;8.43;;;;;;;-4.58;90.19;103025.69;5093145;28;20040;-75
2023/03/01 05:50:21;;;;;;;14.35;9.00;;;;;;;-4.60;90.58;103027.78;5093101;28;20479;-75
2023/03/01 05:52:58;;;;;;;10.25;7.03;;;;;;;-4.62;90.19;103022.88;5093541;28;20045;-75
2023/03/01 05:55:26;;;;;;;12.93;8.15;;;;;;;-4.61;90.54;103027.03;5093152;28;20098;-75
2023/03/01 05:57:55;;;;;;;12.25;8.02;;;;;;;-4.61;90.31;103018.44;5093297;28;20481;-75
2023/03/01 06:00:22;;;;;;;13.75;7.65;;;;;;;-4.66;90.33;103024.50;5092493;28;20071;-75
2023/03/01 06:02:49;;;;;;;11.75;8.02;;;;;;;-4.70;90.33;103018.28;5093048;28;20603;-76
2023/03/01 06:05:15;;;;;;;15.10;8.10;;;;;;;-4.70;90.45;103016.47;5092742;28;20055;-76
2023/03/01 06:07:42;;;;;;;10.88;7.57;;;;;;;-4.68;90.24;103025.81;5093342;28;20124;-76
2023/03/01 06:10:10;;;;;;;16.73;8.10;;;;;;;-4.70;90.27;103020.91;5093308;28;20071;-74
2023/03/01 06:12:39;;;;;;;10.45;6.97;;;;;;;-4.67;90.63;103011.78;5091770;28;20122;-76
2023/03/01 06:15:09;;;;;;;14.45;8.00;;;;;;;-4.65;90.78;103015.63;5093207;28;20486;-76
2023/03/01 06:17:38;;;;;;;13.10;8.43;;;;;;;-4.66;90.70;103019.28;5092556;28;20068;-76
2023/03/01 06:20:08;;;;;;;11.48;7.25;;;;;;;-4.71;90.32;103021.94;5092996;28;20131;-75
2023/03/01 06:22:35;;;;;;;14.30;7.97;;;;;;;-4.74;90.58;103031.06;5092263;28;20044;-74
2023/03/01 06:25:02;;;;;;;11.73;8.07;;;;;;;-4.73;90.47;103027.44;5091077;28;20481;-74
2023/03/01 06:27:29;;;;;;;12.00;7.13;;;;;;;-4.70;90.65;103034.66;5092408;28;20036;-76
2023/03/01 06:29:55;;;;;;;11.52;8.00;;;;;;;-4.70;90.54;103032.06;5093043;28;20452;-75
2023/03/01 06:32:22;;;;;;;12.27;7.75;;;;;;;-4.76;90.53;103025.38;5092385;28;20391;-75
2023/03/01 06:34:49;;;;;;;10.32;6.90;;;;;;;-4.75;90.59;103023.56;5093351;28;20040;-75
2023/03/01 06:37:16;;;;;;;12.13;8.38;;;;;;;-4.70;90.57;103026.88;5090711;27;20525;-75
2023/03/01 06:39:42;;;;;;;13.73;8.23;;;;;;;-4.68;90.54;103036.22;5091127;28;20509;-75
2023/03/01 06:42:09;;;;;;;14.70;8.02;;;;;;;-4.66;90.46;103031.50;5089935;28;20075;-75
2023/03/01 06:44:37;;;;;;;14.85;8.23;;;;;;;-4.67;90.49;103035.16;5089430;28;20049;-75
2023/03/01 06:47:04;;;;;;;13.88;7.10;;;;;;;-4.67;90.35;103025.53;5091675;28;20048;-75
2023/03/01 06:49:30;;;;;;;11.75;7.47;;;;;;;-4.69;90.28;103025.03;5091652;28;20551;-75
2023/03/01 06:51:57;;;;;;;12.60;7.75;;;;;;;-4.70;90.00;103031.28;5091834;28;20044;-76
2023/03/01 06:54:23;;;;;;;13.68;8.35;;;;;;;-4.68;90.23;103025.81;5093021;28;20080;-74
2023/03/01 06:56:50;;;;;;;13.70;7.97;;;;;;;-4.64;90.23;103017.19;5093135;28;20044;-76
2023/03/01 06:59:17;;;;;;;11.75;8.35;;;;;;;-4.61;90.29;103021.81;5092131;28;20044;-75
2023/03/01 07:01:44;;;;;;;12.35;8.20;;;;;;;-4.58;90.41;103025.69;5091829;28;20405;-76
2023/03/01 07:04:12;;;;;;;15.18;8.05;;;;;;;-4.56;90.25;103018.38;5092885;28;20482;-77
2023/03/01 07:06:39;;;;;;;11.30;8.07;;;;;;;-4.56;90.25;103021.75;5092767;28;20045;-76
2023/03/01 07:09:05;;;;;;;14.20;8.85;;;;;;;-4.52;90.43;103027.19;5093020;28;20049;-76
2023/03/01 07:11:32;;;;;;;16.95;8.95;;;;;;;-4.52;90.24;103019.38;5092527;28;20075;-76
2023/03/01 07:13:59;;;;;;;13.40;8.88;;;;;;;-4.49;90.39;103029.22;5092393;28;20045;-79
2023/03/01 07:16:26;;;;;;;13.35;8.90;;;;;;;-4.46;90.58;103031.25;5092453;28;20041;-73
2023/03/01 07:18:53;;;;;;;12.38;8.45;;;;;;;-4.41;90.82;103026.00;5092985;28;20099;-77
2023/03/01 07:21:19;;;;;;;12.70;8.45;;;;;;;-4.32;91.00;103034.69;5091377;28;20071;-79
2023/03/01 07:23:48;;;;;;;12.18;8.00;;;;;;;-4.25;91.29;103034.31;5092798;28;20072;-77
2023/03/01 07:26:14;;;;;;;13.98;8.15;;;;;;;-4.14;91.61;103030.53;5092722;28;20115;-77
2023/03/01 07:28:41;;;;;;;11.52;8.68;;;;;;;-4.00;91.68;103033.97;5092367;28;20147;-76
2023/03/01 07:31:07;;;;;;;15.65;9.48;;;;;;;-3.87;92.14;103032.44;5093005;28;20135;-76
2023/03/01 07:33:34;;;;;;;15.95;9.68;;;;;;;-3.75;92.42;103040.56;5092073;28;20053;-77
2023/03/01 07:36:03;;;;;;;17.02;9.85;;;;;;;-3.63;92.54;103035.69;5093178;28;20106;-78
2023/03/01 07:38:30;;;;;;;15.45;9.15;;;;;;;-3.51;92.41;103041.19;5092420;28;20087;-78
2023/03/01 07:41:02;;;;;;;18.95;9.68;;;;;;;-3.36;92.91;103045.38;5092943;28;20033;-78
2023/03/01 07:43:30;;;;;;;15.95;10.10;;;;;;;-3.22;93.44;103048.00;5090783;28;20049;-76
2023/03/01 07:46:01;;;;;;;17.48;9.93;;;;;;;-3.10;93.57;103046.44;5091165;28;20040;-78
2023/03/01 07:48:28;;;;;;;16.23;9.77;;;;;;;-2.96;93.87;103049.03;5090966;28;20056;-78
2023/03/01 07:51:02;;;;;;;15.27;10.10;;;;;;;-2.83;94.27;103050.88;5091049;28;20279;-77
2023/03/01 07:53:30;;;;;;;20.92;10.27;;;;;;;-2.67;94.70;103048.72;5091490;28;20073;-77
2023/03/01 07:56:02;;;;;;;20.75;11.45;;;;;;;-2.56;94.59;103044.81;5092655;28;20072;-77
2023/03/01 07:58:28;;;;;;;;;;;;;;;-2.42;94.44;103047.41;5092273;28;20044;-78
2023/03/01 08:00:55;;;;;;;15.45;9.38;;;;;;;-2.27;94.40;103051.50;5092606;28;19931;-78
2023/03/01 08:03:21;;;;;;;17.65;10.73;;;;;;;-2.14;94.78;103053.31;5093733;28;20094;-80
2023/03/01 08:05:48;;;;;;;19.27;11.52;;;;;;;-2.01;94.81;103049.88;5077470;28;20054;-80
2023/03/01 08:08:14;;;;;;;15.32;10.75;;;;;;;-1.87;94.50;103057.63;5095626;28;20076;-79
2023/03/01 08:10:42;;;;;;;21.17;11.10;;;;;;;-1.75;94.50;103057.84;5095794;28;20124;-77
2023/03/01 08:13:08;;;;;;;19.88;11.40;;;;;;;-1.61;94.29;103047.34;5095479;28;20076;-76
2023/03/01 08:15:34;;;;;;;17.05;10.57;;;;;;;-1.50;93.95;103051.97;5094999;28;20082;-76
2023/03/01 08:18:01;;;;;;;15.75;11.30;;;;;;;-1.37;93.30;103053.75;5094477;28;20040;-76
2023/03/01 08:20:28;;;;;;;18.25;11.73;;;;;;;-1.21;93.29;103048.13;5095635;28;20072;-77
2023/03/01 08:22:54;;;;;;;15.32;11.02;;;;;;;-1.06;92.30;103047.69;5095918;28;20047;-77
2023/03/01 08:25:21;;;;;;;14.68;9.93;;;;;;;-0.93;91.83;103046.81;5095469;28;20044;-77
2023/03/01 08:27:47;;;;;;;15.30;9.65;;;;;;;-0.80;90.65;103048.50;5095301;28;20072;-76
2023/03/01 08:30:14;;;;;;;12.45;8.95;;;;;;;-0.63;88.96;103050.38;5095606;28;20044;-77
2023/03/01 08:32:41;;;;;;;13.40;8.45;;;;;;;-0.48;87.80;103046.56;5095285;28;20048;-78
2023/03/01 08:35:08;;;;;;;13.35;8.50;;;;;;;-0.32;86.62;103052.84;5077393;28;20136;-78
2023/03/01 08:37:34;;;;;;;10.45;7.53;;;;;;;-0.14;85.33;103043.16;5093820;28;20110;-77
2023/03/01 08:40:01;;;;;;;12.68;8.05;;;;;;;-0.02;85.14;103040.69;5095641;28;20114;-77
2023/03/01 08:42:27;;;;;;;16.60;8.65;;;;;;;0.09;84.29;103039.25;5094652;28;20045;-75
2023/03/01 08:44:54;;;;;;;12.00;8.10;;;;;;;0.22;83.40;103033.06;5095417;28;20053;-78
2023/03/01 08:47:20;;;;;;;11.10;8.25;;;;;;;0.36;82.57;103032.13;5095134;28;20055;-75
2023/03/01 08:49:49;;;;;;;12.73;8.18;;;;;;;0.49;81.16;103033.75;5095346;28;20071;-76
2023/03/01 08:52:16;;;;;;;14.65;8.85;;;;;;;0.63;80.99;103026.44;5095414;28;20072;-77
2023/03/01 08:54:42;;;;;;;14.93;8.10;;;;;;;0.77;80.14;103024.38;5095075;28;20044;-77
2023/03/01 08:57:09;;;;;;;11.18;7.93;;;;;;;0.88;79.25;103020.28;5095702;28;20045;-76
2023/03/01 08:59:37;;;;;;;9.85;7.45;;;;;;;0.97;78.04;103015.78;5095807;28;20044;-76
2023/03/01 09:02:13;;;;;;;11.73;7.30;;;;;;;1.08;77.75;103016.19;5095638;28;20136;-76
2023/03/01 09:04:40;;;;;;;11.20;7.90;;;;;;;1.23;77.14;103014.81;5095017;28;20048;-76
2023/03/01 09:07:07;;;;;;;10.25;7.32;;;;;;;1.34;76.34;103011.50;5093778;28;20069;-76
2023/03/01 09:09:35;;;;;;;11.15;7.25;;;;;;;1.44;74.97;103014.84;5094065;28;20047;-76
2023/03/01 09:12:02;;;;;;;10.82;7.30;;;;;;;1.52;74.65;103011.38;5094743;28;20102;-76
2023/03/01 09:14:29;;;;;;;13.48;7.50;;;;;;;1.62;73.91;103005.69;5093607;28;20041;-76
2023/03/01 09:16:57;;;;;;;9.32;6.18;;;;;;;1.68;73.01;103004.41;5094651;28;20048;-76
2023/03/01 09:19:23;;;;;;;9.18;6.70;;;;;;;1.75;72.64;103001.28;5094607;28;20045;-77
2023/03/01 09:21:52;;;;;;;8.90;6.78;;;;;;;1.83;72.50;103003.06;5094645;28;20045;-78
2023/03/01 09:24:21;;;;;;;7.95;6.53;;;;;;;1.95;72.90;102992.59;5093765;28;20628;-78
2023/03/01 09:26:48;;;;;;;12.05;7.03;;;;;;;2.08;72.53;102995.97;5094842;28;20044;-80
2023/03/01 09:29:17;;;;;;;6.65;5.63;;;;;;;2.14;70.98;102992.06;5094348;28;20065;-79
2023/03/01 09:31:43;;;;;;;9.70;5.50;;;;;;;2.18;69.76;102983.19;5094794;28;20106;-79
2023/03/01 09:34:10;;;;;;;8.75;5.82;;;;;;;2.27;70.16;102986.50;5075986;28;20061;-81
2023/03/01 09:36:37;;;;;;;8.75;6.20;;;;;;;2.37;70.30;102979.28;5093149;28;20511;-81
2023/03/01 09:39:05;;;;;;;9.20;6.03;;;;;;;2.45;69.33;102978.38;5094068;27;20053;-79
2023/03/01 09:41:51;;;;;;;10.80;5.70;;;;;;;2.55;69.62;102972.69;5092730;28;20105;-82
2023/03/01 09:44:18;;;;;;;8.23;5.28;;;;;;;2.60;68.10;102978.50;5094147;28;20044;-80
2023/03/01 09:46:45;;;;;;;7.53;5.35;;;;;;;2.69;68.01;102970.50;5094434;28;20045;-79
2023/03/01 09:49:17;;;;;;;10.07;5.93;;;;;;;2.76;67.27;102975.97;5093817;28;20053;-78
2023/03/01 09:51:55;;;;;;;7.75;5.40;;;;;;;2.85;67.50;102973.97;5094587;28;20124;-78
2023/03/01 09:54:21;;;;;;;6.55;5.10;;;;;;;2.91;66.97;102975.25;5093551;28;20512;-78
2023/03/01 09:57:02;;;;;;;7.07;5.40;;;;;;;2.98;66.34;102972.84;5094246;28;20071;-77
2023/03/01 09:59:49;;;;;;;6.68;5.05;;;;;;;3.06;66.20;102970.41;5094133;28;20123;-77
2023/03/01 10:02:43;;;;;;;11.02;5.53;;;;;;;3.19;66.22;102974.56;5092395;28;20122;-78
2023/03/01 10:05:29;;;;;;;7.75;4.55;;;;;;;3.28;64.88;102972.53;5094225;28;20045;-77
2023/03/01 10:08:07;;;;;;;4.53;3.80;;;;;;;3.30;63.67;102976.34;5093597;28;20457;-77
2023/03/01 10:10:38;;;;;;;4.97;3.25;;;;;;;3.34;62.74;102982.50;5093837;28;20516;-78
2023/03/01 10:13:23;;;;;;;4.00;3.65;;;;;;;3.40;63.23;102971.72;5094230;28;20116;-80
2023/03/01 10:15:54;;;;;;;7.18;3.75;;;;;;;3.53;62.67;102975.84;5093824;27;20067;-77
2023/03/01 10:18:26;;;;;;;6.15;3.85;;;;;;;3.62;61.96;102977.19;5093094;28;20051;-78
2023/03/01 10:21:02;;;;;;;8.10;3.90;;;;;;;3.61;61.49;102973.03;5093906;28;20138;-76
2023/03/01 10:23:32;;;;;;;6.00;4.40;;;;;;;3.60;61.36;102974.13;5090950;28;20114;-76
2023/03/01 10:26:17;;;;;;;7.45;5.97;;;;;;;3.67;61.78;102968.28;5092569;28;20522;-75
2023/03/01 10:29:04;;;;;;;5.65;4.47;;;;;;;3.77;62.29;102961.75;5092477;28;20072;-77
2023/03/01 10:31:42;;;;;;;9.73;4.78;;;;;;;3.79;61.70;102960.31;5092245;28;20033;-76
2023/03/01 10:34:26;;;;;;;5.28;4.75;;;;;;;3.85;61.34;102974.03;5093163;28;20045;-76
2023/03/01 10:36:57;;;;;;;7.60;5.15;;;;;;;3.89;60.88;102964.34;5093404;28;20058;-76
2023/03/01 10:39:26;;;;;;;4.78;4.30;;;;;;;3.94;60.35;102956.19;5093475;28;20152;-77
2023/03/01 10:42:05;;;;;;;7.25;4.43;;;;;;;4.00;60.04;102946.88;5093479;28;20064;-76
2023/03/01 10:44:47;;;;;;;5.07;4.07;;;;;;;4.08;60.20;102940.69;5093311;28;20051;-77
2023/03/01 10:47:17;;;;;;;7.18;4.22;;;;;;;4.15;58.79;102943.50;5093530;28;20452;-77
2023/03/01 10:49:53;;;;;;;3.58;3.30;;;;;;;4.21;58.68;102930.81;5092180;28;20535;-77
2023/03/01 10:52:29;;;;;;;4.03;2.92;;;;;;;4.24;56.91;102922.22;5092717;28;20552;-77
2023/03/01 10:54:59;;;;;;;5.25;3.03;;;;;;;4.21;56.43;102922.91;5093517;28;20044;-77
2023/03/01 10:57:35;;;;;;;4.68;2.88;;;;;;;4.27;56.54;102924.19;5092771;28;20103;-77
2023/03/01 11:00:26;;;;;;;3.72;2.97;;;;;;;4.30;56.31;102912.94;5093066;28;20590;-77
2023/03/01 11:02:58;;;;;;;3.80;3.05;;;;;;;4.32;55.03;102906.22;5093252;28;20045;-77
2023/03/01 11:05:28;;;;;;;4.32;3.28;;;;;;;4.40;55.38;102903.75;5092531;28;20048;-77
2023/03/01 11:07:57;;;;;;;5.40;2.80;;;;;;;4.47;55.41;102909.16;5093385;28;20940;-79
2023/03/01 11:10:26;;;;;;;4.10;3.05;;;;;;;4.50;55.37;102906.59;5092370;27;20052;-81
2023/03/01 11:13:05;;;;;;;3.75;3.35;;;;;;;4.53;54.72;102902.50;5093501;28;20052;-78
2023/03/01 11:15:31;;;;;;;3.83;3.25;;;;;;;4.55;54.46;102898.41;5092951;28;20449;-77
2023/03/01 11:17:58;;;;;;;7.28;2.90;;;;;;;4.55;54.52;102898.41;5074796;28;20460;-80
2023/03/01 11:20:39;;;;;;;4.20;3.15;;;;;;;4.60;54.69;102889.47;5074144;28;20045;-80
2023/03/01 11:23:12;;;;;;;3.63;3.25;;;;;;;4.62;54.92;102885.38;5073330;28;20045;-78
2023/03/01 11:25:54;;;;;;;4.40;2.75;;;;;;;4.65;55.10;102879.41;5071320;28;20057;-78
2023/03/01 11:28:22;;;;;;;3.75;3.45;;;;;;;4.67;53.61;102871.16;5054139;28;20056;-79
2023/03/01 11:30:54;;;;;;;4.03;2.90;;;;;;;4.69;53.44;102885.53;5072750;28;20049;-80
2023/03/01 11:33:42;;;;;;;3.17;2.88;;;;;;;4.80;53.72;102882.34;5071544;28;20088;-80
2023/03/01 11:36:33;;;;;;;7.15;2.92;;;;;;;4.80;53.29;102875.16;5072588;28;20495;-80
2023/03/01 11:39:20;;;;;;;5.72;3.00;;;;;;;4.82;53.62;102880.84;5075703;28;20049;-80